Time;durP1;ratioP1;P1;durP2;ratioP2;P2;SDS_P1;SDS_P2;PMS_P1;PMS_P2;Temp;Humidity;BMP_temperature;BMP_pressure;BME280_temperature;BME280_humidity;BME280_pressure;Samples;Min_cycle;Max_cycle;Signal;HPM_P1;HPM_P2
2022/05/26 00:04:10;;;;;;;19.52;13.85;;;;;;;10.10;100.00;99211.15;4326049;81;21041;-83
2022/05/26 00:10:11;;;;;;;16.87;13.08;;;;;;;10.16;100.00;99209.67;4345772;81;21035;-81
2022/05/26 00:16:16;;;;;;;16.93;12.95;;;;;;;10.06;100.00;99206.15;4347917;81;21006;-82
2022/05/26 00:22:17;;;;;;;22.65;12.85;;;;;;;10.04;100.00;99211.98;4352059;81;21013;-82
2022/05/26 00:28:32;;;;;;;15.00;11.85;;;;;;;10.05;100.00;99204.02;4333998;81;20981;-81
2022/05/26 00:34:34;;;;;;;17.75;11.95;;;;;;;10.08;100.00;99209.34;4333760;81;21073;-81
2022/05/26 00:40:37;;;;;;;17.67;12.23;;;;;;;10.09;100.00;99211.72;4347654;81;21073;-81
2022/05/26 00:47:22;;;;;;;13.00;10.63;;;;;;;10.04;100.00;99214.72;4332377;81;21134;-81
2022/05/26 00:53:40;;;;;;;13.85;10.38;;;;;;;10.00;100.00;99210.35;4339635;81;21025;-81
2022/05/26 01:00:07;;;;;;;15.60;10.72;;;;;;;9.96;100.00;99214.98;4345425;81;21018;-82
2022/05/26 01:06:33;;;;;;;12.88;9.85;;;;;;;9.90;100.00;99207.65;4331349;81;22138;-82
2022/05/26 01:12:49;;;;;;;14.77;10.00;;;;;;;9.72;100.00;99207.94;4325536;81;20971;-81
2022/05/26 01:26:01;;;;;;;14.55;9.75;;;;;;;9.63;100.00;99221.63;4331057;81;21038;-81
2022/05/26 01:32:25;;;;;;;11.63;9.23;;;;;;;9.61;100.00;99221.18;4331851;80;21023;-82
2022/05/26 01:39:15;;;;;;;16.30;9.78;;;;;;;9.63;100.00;99225.72;4329471;81;21034;-82
2022/05/26 01:45:31;;;;;;;15.28;9.00;;;;;;;9.32;100.00;99221.22;4338614;81;21018;-82
2022/05/26 01:51:46;;;;;;;11.57;8.43;;;;;;;9.17;100.00;99220.16;4285500;81;21036;-83
2022/05/26 01:58:06;;;;;;;10.85;8.80;;;;;;;9.26;100.00;99223.47;4323558;81;21004;-82
2022/05/26 02:04:23;;;;;;;15.75;8.85;;;;;;;9.34;100.00;99232.02;4341166;79;21504;-82
2022/05/26 02:10:34;;;;;;;;;;;;;;;9.36;100.00;99244.72;4350801;80;21074;-82
2022/05/26 02:16:41;;;;;;;14.35;8.33;;;;;;;9.32;100.00;99247.97;4378692;80;20462;-82
2022/05/26 02:23:00;;;;;;;;;;;;;;;9.20;100.00;99249.49;4365495;80;21065;-82
2022/05/26 02:35:37;;;;;;;9.33;7.12;;;;;;;8.96;100.00;99241.56;4353855;80;21991;-82
2022/05/26 02:42:17;;;;;;;10.58;8.08;;;;;;;9.04;100.00;99253.42;4358867;80;21042;-82
2022/05/26 02:49:01;;;;;;;9.90;7.95;;;;;;;9.01;100.00;99245.94;4360161;80;20996;-83
2022/05/26 02:55:44;;;;;;;8.03;6.62;;;;;;;9.04;100.00;99250.12;4353260;80;21563;-83
2022/05/26 03:02:14;;;;;;;9.20;7.47;;;;;;;9.08;100.00;99240.64;4336992;80;21116;-84
2022/05/26 03:08:21;;;;;;;9.55;7.20;;;;;;;9.07;100.00;99239.05;4368570;80;21050;-82
2022/05/26 03:14:25;;;;;;;;;;;;;;;9.06;100.00;99243.73;4173438;84;21040;-82
2022/05/26 03:20:29;;;;;;;11.90;7.53;;;;;;;9.10;100.00;99243.22;4211854;82;20634;-82
2022/05/26 03:26:31;;;;;;;10.38;7.40;;;;;;;9.18;100.00;99247.69;4097503;84;21123;-82
2022/05/26 03:32:34;;;;;;;10.38;7.80;;;;;;;9.26;100.00;99248.05;4216286;83;21720;-82
2022/05/26 03:45:03;;;;;;;12.20;6.45;;;;;;;9.24;100.00;99236.68;4201607;83;20988;-81
2022/05/26 03:51:05;;;;;;;8.45;6.37;;;;;;;9.26;100.00;99243.15;4202454;82;21097;-81
2022/05/26 03:57:07;;;;;;;12.28;6.62;;;;;;;9.34;100.00;99244.88;4201557;83;21045;-81
2022/05/26 04:03:09;;;;;;;8.63;6.20;;;;;;;9.42;100.00;99247.40;4199988;82;21978;-82
2022/05/26 04:09:17;;;;;;;7.83;6.03;;;;;;;9.48;100.00;99254.15;4209356;80;21106;-81
2022/05/26 04:15:20;;;;;;;7.20;5.37;;;;;;;9.58;100.00;99255.51;4291782;82;20973;-81
2022/05/26 04:21:23;;;;;;;7.67;5.22;;;;;;;9.68;100.00;99260.96;4276447;82;21070;-82
2022/05/26 04:27:28;;;;;;;6.80;5.25;;;;;;;9.79;100.00;99257.84;4256056;82;21586;-81
2022/05/26 04:33:32;;;;;;;7.97;5.17;;;;;;;9.91;100.00;99265.88;4347915;80;21577;-81
2022/05/26 04:39:34;;;;;;;7.67;5.35;;;;;;;10.01;100.00;99259.78;4353629;80;21092;-81
2022/05/26 04:45:36;;;;;;;8.55;5.00;;;;;;;10.12;100.00;99252.02;4393268;80;20994;-81
2022/05/26 04:51:38;;;;;;;5.00;4.50;;;;;;;10.28;100.00;99248.57;4328629;80;20982;-81
2022/05/26 04:57:44;;;;;;;4.72;4.05;;;;;;;10.46;100.00;99247.49;4371681;80;21046;-81
2022/05/26 05:03:47;;;;;;;5.40;4.37;;;;;;;10.60;100.00;99244.97;4346108;80;20955;-82
2022/05/26 05:09:49;;;;;;;6.12;4.15;;;;;;;10.76;100.00;99251.84;4343130;80;21020;-82
2022/05/26 05:16:13;;;;;;;6.92;3.75;;;;;;;10.90;100.00;99254.78;4251879;81;21036;-81
2022/05/26 05:22:30;;;;;;;3.55;3.17;;;;;;;11.09;100.00;99252.48;4248855;83;21044;-82
2022/05/26 05:28:36;;;;;;;12.80;4.30;;;;;;;11.38;100.00;99250.89;4262770;83;21068;-83
2022/05/26 05:34:43;;;;;;;9.63;4.25;;;;;;;11.70;100.00;99246.60;4255095;83;21611;-81
2022/05/26 05:40:46;;;;;;;6.08;4.10;;;;;;;11.91;100.00;99240.73;4237557;83;21030;-81
2022/05/26 05:46:53;;;;;;;7.10;4.75;;;;;;;12.12;100.00;99242.89;4258722;81;21088;-82
2022/05/26 05:52:58;;;;;;;6.55;3.60;;;;;;;12.31;100.00;99246.75;4220175;83;21133;-82
2022/05/26 05:59:00;;;;;;;6.97;4.08;;;;;;;12.48;100.00;99252.39;4266712;81;21016;-81
2022/05/26 06:05:04;;;;;;;5.35;3.20;;;;;;;12.70;100.00;99251.18;4281292;83;20987;-82
2022/05/26 06:11:06;;;;;;;4.62;3.27;;;;;;;12.93;100.00;99249.76;4277273;81;21052;-83
2022/05/26 06:17:11;;;;;;;4.67;3.20;;;;;;;13.22;100.00;99251.50;4333056;81;21006;-82
2022/05/26 06:23:12;;;;;;;4.92;3.45;;;;;;;13.53;100.00;99255.56;4318177;81;21022;-83
2022/05/26 06:42:18;;;;;;;7.28;4.80;;;;;;;14.59;100.00;99248.24;4329790;81;21043;-82
2022/05/26 06:48:19;;;;;;;9.78;3.15;;;;;;;14.96;100.00;99250.73;4332831;81;20979;-85
2022/05/26 06:54:20;;;;;;;6.70;4.45;;;;;;;15.50;100.00;99245.27;4324315;81;21000;-82
2022/05/26 07:00:22;;;;;;;7.10;3.20;;;;;;;16.13;100.00;99249.02;4320405;81;21956;-82
2022/05/26 07:06:27;;;;;;;6.35;3.52;;;;;;;16.72;100.00;99249.16;4345647;81;21566;-85
2022/05/26 07:12:28;;;;;;;9.03;4.00;;;;;;;17.24;100.00;99252.56;4345311;80;21063;-82
2022/05/26 07:18:34;;;;;;;5.22;3.27;;;;;;;17.93;100.00;99252.85;4343474;80;21021;-82
2022/05/26 07:24:36;;;;;;;2.70;2.07;;;;;;;18.60;98.63;99254.00;4361278;80;21025;-81
2022/05/26 07:30:40;;;;;;;6.78;2.50;;;;;;;18.99;96.62;99265.02;4336796;80;22053;-82
2022/05/26 07:44:09;;;;;;;3.35;1.70;;;;;;;19.37;93.43;99253.81;4367491;80;21522;-82
2022/05/26 07:50:20;;;;;;;3.17;1.87;;;;;;;19.64;92.80;99263.53;4359657;80;21034;-82
2022/05/26 08:02:43;;;;;;;3.15;1.60;;;;;;;19.81;88.87;99285.98;4345136;80;21022;-83
2022/05/26 08:08:54;;;;;;;4.03;1.65;;;;;;;19.83;88.33;99281.39;4370204;80;21018;-83
2022/05/26 08:14:56;;;;;;;5.55;1.67;;;;;;;20.07;87.95;99278.08;4273356;80;21052;-83
2022/05/26 08:27:41;;;;;;;3.22;1.52;;;;;;;20.51;85.46;99280.84;4268544;81;21068;-81
2022/05/26 08:33:43;;;;;;;1.98;1.12;;;;;;;20.68;81.88;99271.88;4274110;81;21097;-84
2022/05/26 08:39:44;;;;;;;2.37;1.20;;;;;;;20.97;82.35;99276.94;4265311;81;21072;-83
2022/05/26 08:46:17;;;;;;;1.37;1.15;;;;;;;20.62;80.95;99273.02;4261043;83;20999;-83
2022/05/26 08:53:02;;;;;;;1.67;1.10;;;;;;;20.81;80.16;99272.14;4257456;83;21048;-84
2022/05/26 09:19:29;;;;;;;2.65;1.10;;;;;;;21.27;75.26;99273.70;4306450;80;21060;-84
2022/05/26 09:46:09;;;;;;;3.85;0.88;;;;;;;21.23;69.43;99270.25;4300525;81;21012;-83
2022/05/26 09:52:44;;;;;;;8.93;1.35;;;;;;;21.42;68.31;99273.50;4344650;81;21097;-84
2022/05/26 09:58:45;;;;;;;4.25;0.98;;;;;;;21.63;67.81;99269.49;4324743;81;21491;-85
2022/05/26 10:26:26;;;;;;;4.90;1.45;;;;;;;21.84;63.45;99254.19;4146436;86;21548;-84
2022/05/26 10:32:49;;;;;;;3.22;1.02;;;;;;;22.42;62.43;99265.91;3959329;88;21112;-85
2022/05/26 10:39:35;;;;;;;3.20;0.95;;;;;;;22.53;60.97;99263.58;3975889;88;21719;-84
2022/05/26 10:53:15;;;;;;;2.37;0.90;;;;;;;22.53;58.91;99256.00;3991971;86;21892;-84
2022/05/26 11:06:30;;;;;;;8.83;1.07;;;;;;;22.35;56.47;99253.59;4034971;83;21043;-84
2022/05/26 11:12:53;;;;;;;4.03;1.00;;;;;;;22.56;56.90;99250.91;4208890;83;21117;-85
2022/05/26 11:19:32;;;;;;;5.75;1.07;;;;;;;22.99;55.22;99246.06;4332907;80;20980;-85
2022/05/26 11:26:31;;;;;;;3.12;0.72;;;;;;;23.93;55.09;99245.20;4180549;81;20976;-86
2022/05/26 11:39:29;;;;;;;7.10;0.93;;;;;;;25.17;53.07;99238.23;4377459;81;21031;-85
2022/05/26 11:53:07;;;;;;;7.22;1.05;;;;;;;25.51;52.00;99234.35;4166278;85;21058;-84
2022/05/26 11:59:45;;;;;;;4.92;0.85;;;;;;;25.73;51.51;99248.95;4141977;85;21086;-86
2022/05/26 12:06:24;;;;;;;4.92;0.72;;;;;;;25.27;50.42;99232.80;4061197;87;21144;-85
2022/05/26 12:19:54;;;;;;;4.70;1.00;;;;;;;24.39;49.96;99228.16;3936584;90;21145;-85
2022/05/26 12:26:42;;;;;;;2.87;1.62;;;;;;;23.63;48.74;99224.38;3899953;83;21200;-85
2022/05/26 12:33:02;;;;;;;2.40;0.65;;;;;;;23.39;48.26;99214.91;4281175;82;21038;-86
2022/05/26 13:20:56;;;;;;;7.62;1.10;;;;;;;22.01;49.18;99208.86;4077216;85;21060;-86
2022/05/26 13:27:25;;;;;;;4.33;1.12;;;;;;;21.86;49.40;99210.55;4064340;86;21114;-85
2022/05/26 13:54:58;;;;;;;4.83;1.17;;;;;;;21.38;50.02;99211.55;4320856;82;21658;-85
2022/05/26 14:35:39;;;;;;;10.85;2.45;;;;;;;20.76;52.33;99198.95;4053879;86;21520;-85
2022/05/26 14:41:44;;;;;;;2.77;0.78;;;;;;;20.60;52.45;99202.34;4291467;81;21049;-84
2022/05/26 14:48:05;;;;;;;5.72;0.90;;;;;;;20.86;52.67;99198.49;4328771;81;21018;-84
2022/05/26 15:00:37;;;;;;;1.45;0.60;;;;;;;20.97;53.06;99196.99;4249655;83;21015;-84
2022/05/26 15:06:46;;;;;;;3.22;0.85;;;;;;;20.93;52.31;99185.77;4323990;81;21946;-86
2022/05/26 15:12:47;;;;;;;1.00;0.62;;;;;;;21.07;52.07;99191.75;4334282;81;21462;-85
2022/05/26 15:18:48;;;;;;;8.33;0.57;;;;;;;20.89;51.56;99191.42;4321164;81;21066;-85
2022/05/26 15:24:51;;;;;;;3.47;0.85;;;;;;;20.76;51.22;99182.25;4326979;81;21105;-85
2022/05/26 15:30:52;;;;;;;2.83;1.00;;;;;;;20.88;51.54;99173.77;4338239;81;21049;-84
2022/05/26 15:36:54;;;;;;;5.08;0.68;;;;;;;20.87;51.79;99177.19;4337414;80;20994;-86
2022/05/26 15:42:55;;;;;;;3.25;0.65;;;;;;;20.82;51.13;99166.59;4312393;81;21033;-85
2022/05/26 15:48:57;;;;;;;8.08;1.60;;;;;;;20.57;51.23;99159.52;4329363;80;21042;-84
2022/05/26 15:54:59;;;;;;;0.95;0.50;;;;;;;20.45;51.58;99173.35;4336144;81;21095;-86
2022/05/26 16:01:00;;;;;;;4.75;0.60;;;;;;;20.27;51.46;99177.97;4341087;81;21504;-85
2022/05/26 16:07:01;;;;;;;3.45;0.65;;;;;;;20.18;51.41;99173.63;4332589;81;21012;-86
2022/05/26 16:13:04;;;;;;;3.87;1.00;;;;;;;20.09;51.55;99172.80;4335159;80;21037;-85
2022/05/26 16:19:05;;;;;;;4.17;0.60;;;;;;;20.09;50.61;99177.61;4331035;81;21043;-84
2022/05/26 16:25:08;;;;;;;1.10;0.60;;;;;;;20.10;51.32;99179.16;4322096;80;20990;-85
2022/05/26 16:31:09;;;;;;;5.62;0.80;;;;;;;20.12;50.95;99181.66;4330847;81;20990;-85
2022/05/26 16:37:11;;;;;;;2.70;0.60;;;;;;;20.31;50.81;99184.83;4339418;81;20986;-85
2022/05/26 16:43:12;;;;;;;3.85;0.70;;;;;;;20.37;50.74;99180.31;4321152;81;21866;-84
2022/05/26 16:49:13;;;;;;;2.80;0.55;;;;;;;20.19;51.33;99194.04;4348070;81;21017;-86
2022/05/26 16:55:15;;;;;;;3.35;0.80;;;;;;;20.07;51.12;99192.53;4336426;81;20978;-86
2022/05/26 17:01:16;;;;;;;1.70;0.65;;;;;;;19.90;51.40;99196.52;4329091;81;20991;-85
2022/05/26 17:07:18;;;;;;;1.60;0.70;;;;;;;19.70;51.44;99193.01;4221272;79;9999808;-85
2022/05/26 17:26:01;;;;;;;2.22;0.75;;;;;;;19.55;52.44;99197.30;4346953;81;20970;-85
2022/05/26 17:32:03;;;;;;;5.20;1.25;;;;;;;19.43;52.30;99191.81;4336712;79;21092;-85
2022/05/26 17:38:05;;;;;;;4.03;1.02;;;;;;;19.27;52.42;99191.72;4336021;80;21676;-84
2022/05/26 18:33:57;;;;;;;5.25;1.00;;;;;;;18.28;55.99;99192.75;4339721;80;21405;-85
2022/05/26 19:00:32;;;;;;;7.10;2.27;;;;;;;17.86;57.52;99216.17;4388408;81;20934;-84
2022/05/26 19:27:16;;;;;;;3.70;1.57;;;;;;;17.38;58.50;99235.80;4221050;82;21016;-84
2022/05/26 19:33:50;;;;;;;3.90;1.40;;;;;;;17.31;58.63;99231.71;3978448;89;21070;-84
2022/05/26 19:40:09;;;;;;;3.72;1.47;;;;;;;17.26;58.90;99231.40;3995747;89;20994;-84
2022/05/26 19:52:42;;;;;;;5.05;1.50;;;;;;;17.17;60.25;99240.98;3875151;91;21233;-84
2022/05/26 19:59:15;;;;;;;5.00;1.82;;;;;;;17.11;60.80;99239.86;4068747;87;21113;-84
2022/05/26 20:05:38;;;;;;;7.80;1.90;;;;;;;17.07;60.99;99244.63;4131882;85;21899;-84
2022/05/26 20:12:08;;;;;;;3.40;1.32;;;;;;;16.99;61.45;99243.75;4134368;86;21975;-84
2022/05/26 20:39:45;;;;;;;5.65;1.40;;;;;;;16.81;62.87;99256.38;4276547;83;20999;-84
2022/05/26 20:46:21;;;;;;;5.90;1.52;;;;;;;16.76;62.96;99258.19;4295138;82;22075;-84
2022/05/26 20:59:24;;;;;;;4.25;1.70;;;;;;;16.63;63.36;99259.88;4319994;81;21137;-85
2022/05/26 21:12:03;;;;;;;2.92;1.22;;;;;;;16.42;63.44;99256.49;4348607;81;21134;-84
2022/05/26 21:18:14;;;;;;;7.62;1.72;;;;;;;16.32;63.86;99261.52;4351674;80;21994;-86
2022/05/26 21:24:17;;;;;;;3.77;1.50;;;;;;;16.23;64.18;99254.27;4333989;81;21047;-85
2022/05/26 21:30:26;;;;;;;3.85;1.57;;;;;;;16.17;64.92;99246.23;4357640;79;21025;-84
2022/05/26 21:43:49;;;;;;;2.58;1.40;;;;;;;16.04;65.46;99252.03;4314999;79;21513;-84
2022/05/26 21:49:53;;;;;;;3.17;1.30;;;;;;;15.95;65.67;99241.45;4317792;82;21542;-84
2022/05/26 22:02:55;;;;;;;5.17;1.70;;;;;;;15.85;66.04;99245.67;4244671;83;21896;-85
2022/05/26 22:16:12;;;;;;;6.42;2.17;;;;;;;15.82;66.16;99254.15;4318163;81;21036;-84
2022/05/26 22:29:56;;;;;;;3.80;1.95;;;;;;;15.81;66.47;99253.17;4091919;84;21164;-83
2022/05/26 22:36:46;;;;;;;2.83;1.22;;;;;;;15.76;66.40;99248.06;4166953;84;21053;-84
2022/05/26 22:43:01;;;;;;;3.25;1.15;;;;;;;15.74;67.02;99247.09;4178002;84;21041;-84
2022/05/26 22:49:04;;;;;;;2.52;1.20;;;;;;;15.71;67.26;99250.66;4179372;84;21021;-84
2022/05/26 22:55:50;;;;;;;3.22;1.10;;;;;;;15.68;67.11;99241.05;4167532;84;22112;-84
2022/05/26 23:02:02;;;;;;;6.53;1.42;;;;;;;15.61;67.43;99239.87;4226541;84;20980;-84
2022/05/26 23:15:26;;;;;;;4.17;1.67;;;;;;;15.61;67.63;99229.45;4243986;84;21071;-84
2022/05/26 23:21:55;;;;;;;4.22;1.22;;;;;;;15.53;67.31;99219.02;4316249;81;21030;-84
2022/05/26 23:28:24;;;;;;;6.75;1.60;;;;;;;15.48;67.41;99223.59;4244280;84;21026;-84
2022/05/26 23:34:32;;;;;;;5.72;2.10;;;;;;;15.44;67.80;99220.05;4305192;81;21016;-84
2022/05/26 23:47:54;;;;;;;2.92;0.90;;;;;;;15.26;67.84;99223.47;4318379;81;21010;-84
2022/05/26 23:54:21;;;;;;;1.45;0.82;;;;;;;15.23;67.48;99223.47;4243799;81;21130;-84
